createdAt,value
2023-04-02T00:00:52.819Z,86.2285
2023-04-02T00:01:54.241Z,86.4483
2023-04-02T00:02:55.730Z,86.4253
2023-04-02T00:03:57.173Z,86.0564
2023-04-02T00:04:58.598Z,85.7031
2023-04-02T00:05:59.964Z,85.6519
2023-04-02T00:07:01.327Z,85.9096
2023-04-02T00:08:02.740Z,85.5380
2023-04-02T00:09:04.116Z,85.0125
2023-04-02T00:10:05.549Z,84.7518
2023-04-02T00:11:06.958Z,84.8606
2023-04-02T00:12:08.339Z,85.6345
2023-04-02T00:13:09.735Z,85.7616
2023-04-02T00:14:11.186Z,85.6877
2023-04-02T00:15:12.635Z,85.7878
2023-04-02T00:16:14.018Z,85.5704
2023-04-02T00:17:15.437Z,85.5221
2023-04-02T00:18:16.902Z,85.9792
2023-04-02T00:19:18.279Z,85.8603
2023-04-02T00:20:19.628Z,85.7288
2023-04-02T00:21:20.970Z,85.3015
2023-04-02T00:22:22.377Z,85.0669
2023-04-02T00:23:23.770Z,85.0103
2023-04-02T00:24:25.199Z,85.4464
2023-04-02T00:25:26.576Z,85.7148
2023-04-02T00:26:28.037Z,85.7393
2023-04-02T00:27:29.363Z,86.0117
2023-04-02T00:28:30.749Z,86.2105
2023-04-02T00:29:32.133Z,86.5263
2023-04-02T00:30:33.508Z,86.7927
2023-04-02T00:31:34.900Z,87.3475
2023-04-02T00:32:36.307Z,87.5372
2023-04-02T00:33:37.742Z,87.9935
2023-04-02T00:34:39.204Z,88.4073
2023-04-02T00:35:40.660Z,88.6345
2023-04-02T00:36:42.171Z,88.4993
2023-04-02T00:37:43.571Z,88.7131
2023-04-02T00:38:46.665Z,88.9237
2023-04-02T00:39:46.425Z,88.8098
2023-04-02T00:40:47.774Z,88.9849
2023-04-02T00:41:49.197Z,88.8826
2023-04-02T00:42:50.607Z,88.8366
2023-04-02T00:43:52.051Z,89.0590
2023-04-02T00:44:53.504Z,89.1179
2023-04-02T00:45:54.923Z,89.2823
2023-04-02T00:46:56.354Z,89.2951
2023-04-02T00:47:57.854Z,89.4327
2023-04-02T00:48:59.241Z,89.4847
2023-04-02T00:50:00.717Z,89.6848
2023-04-02T00:51:02.093Z,89.6830
2023-04-02T00:52:03.531Z,89.5186
2023-04-02T00:53:04.920Z,89.3344
2023-04-02T00:54:06.378Z,89.5500
2023-04-02T00:55:07.793Z,89.6841
2023-04-02T00:56:09.280Z,89.8739
2023-04-02T00:57:10.653Z,90.0925
2023-04-02T00:58:12.131Z,89.7156
2023-04-02T00:59:13.495Z,89.8025
2023-04-02T01:00:14.979Z,89.7086
2023-04-02T01:01:16.395Z,89.6786
2023-04-02T01:02:18.070Z,89.6815
2023-04-02T01:03:19.666Z,90.0235
2023-04-02T01:04:21.515Z,89.7990
2023-04-02T01:05:23.068Z,89.8824
2023-04-02T01:06:24.471Z,89.8051
2023-04-02T01:07:26.112Z,89.7621
2023-04-02T01:08:27.534Z,89.4695
2023-04-02T01:09:28.882Z,89.3599
2023-04-02T01:10:30.343Z,89.4549
2023-04-02T01:11:31.879Z,89.3619
2023-04-02T01:12:33.381Z,89.4498
2023-04-02T01:13:34.782Z,89.4560
2023-04-02T01:14:36.204Z,89.4156
2023-04-02T01:15:38.110Z,90.0338
2023-04-02T01:16:39.782Z,89.7821
2023-04-02T01:17:41.182Z,89.8091
2023-04-02T01:18:42.583Z,89.8201
2023-04-02T01:19:43.938Z,90.3224
2023-04-02T01:20:45.384Z,90.1062
2023-04-02T01:21:46.796Z,89.6023
2023-04-02T01:22:48.256Z,89.3456
2023-04-02T01:23:49.605Z,89.2543
2023-04-02T01:24:50.993Z,89.1947
2023-04-02T01:25:52.449Z,89.4745
2023-04-02T01:26:53.777Z,89.3277
2023-04-02T01:27:55.182Z,89.0522
2023-04-02T01:28:56.575Z,89.1333
2023-04-02T01:29:57.955Z,88.9764
2023-04-02T01:30:59.346Z,89.1367
2023-04-02T01:32:00.791Z,89.0399
2023-04-02T01:33:02.255Z,89.0235
2023-04-02T01:34:03.674Z,89.0322
2023-04-02T01:35:05.039Z,89.0468
2023-04-02T01:36:06.419Z,89.2085
2023-04-02T01:37:07.813Z,89.6009
2023-04-02T01:38:09.205Z,89.4818
2023-04-02T01:39:10.628Z,89.4070
2023-04-02T01:40:12.023Z,89.7252
2023-04-02T01:41:13.407Z,89.7577
2023-04-02T01:42:14.824Z,89.5820
2023-04-02T01:43:16.195Z,89.4232
2023-04-02T01:44:17.553Z,89.2174
2023-04-02T01:45:18.955Z,89.2490
2023-04-02T01:46:20.435Z,89.2837
2023-04-02T01:47:21.768Z,88.9884
2023-04-02T01:48:23.208Z,88.8630
2023-04-02T01:49:24.573Z,88.4782
2023-04-02T01:50:25.977Z,88.7370
2023-04-02T01:51:27.394Z,88.4389
2023-04-02T01:52:28.882Z,88.1245
2023-04-02T01:53:30.222Z,88.6049
2023-04-02T01:54:31.665Z,88.3212
2023-04-02T01:55:33.328Z,88.2014
2023-04-02T01:56:35.179Z,88.6733
2023-04-02T01:57:36.572Z,87.8823
2023-04-02T01:58:37.950Z,87.6125
2023-04-02T01:59:39.369Z,87.5944
2023-04-02T02:00:40.902Z,87.8902
2023-04-02T02:01:42.467Z,87.7964
2023-04-02T02:02:43.918Z,88.1773
2023-04-02T02:03:45.400Z,88.2007
2023-04-02T02:04:46.853Z,87.9734
2023-04-02T02:05:48.218Z,88.0530
2023-04-02T02:06:49.632Z,88.2997
2023-04-02T02:07:51.039Z,88.4802
2023-04-02T02:08:52.440Z,88.3710
2023-04-02T02:09:53.787Z,88.8543
2023-04-02T02:10:55.194Z,88.5369
2023-04-02T02:11:56.564Z,88.8126
2023-04-02T02:12:57.998Z,88.5148
2023-04-02T02:13:59.356Z,88.7725
2023-04-02T02:15:00.814Z,89.1080
2023-04-02T02:16:02.189Z,89.3804
2023-04-02T02:17:03.575Z,88.8361
2023-04-02T02:18:04.927Z,88.6519
2023-04-02T02:19:06.322Z,88.2556
2023-04-02T02:20:07.741Z,88.2656
2023-04-02T02:21:09.114Z,88.3581
2023-04-02T02:22:10.547Z,87.9478
2023-04-02T02:23:11.936Z,88.4128
2023-04-02T02:24:13.414Z,88.2609
2023-04-02T02:25:14.827Z,89.1286
2023-04-02T02:26:16.238Z,89.1823
2023-04-02T02:27:17.587Z,88.6211
2023-04-02T02:28:19.002Z,88.1329
2023-04-02T02:29:20.384Z,88.0281
2023-04-02T02:30:21.770Z,88.5352
2023-04-02T02:31:23.270Z,88.6603
2023-04-02T02:32:24.701Z,87.5890
2023-04-02T02:33:26.079Z,87.2888
2023-04-02T02:34:27.469Z,86.7756
2023-04-02T02:35:28.983Z,86.9664
2023-04-02T02:36:30.364Z,87.2902
2023-04-02T02:37:31.741Z,87.9045
2023-04-02T02:38:33.147Z,88.0480
2023-04-02T02:39:34.635Z,86.8534
2023-04-02T02:40:36.049Z,86.5533
2023-04-02T02:41:37.441Z,86.9096
2023-04-02T02:42:38.832Z,86.9951
2023-04-02T02:43:40.272Z,87.0047
2023-04-02T02:44:41.670Z,86.3075
2023-04-02T02:45:43.071Z,86.9082
2023-04-02T02:46:44.437Z,87.0463
2023-04-02T02:47:45.885Z,87.1488
2023-04-02T02:48:47.217Z,87.4299
2023-04-02T02:49:48.632Z,87.3817
2023-04-02T02:50:50.060Z,87.5469
2023-04-02T02:51:51.441Z,87.4551
2023-04-02T02:52:52.849Z,87.4120
2023-04-02T02:53:54.249Z,87.3158
2023-04-02T02:54:55.917Z,87.0409
2023-04-02T02:55:57.331Z,86.8617
2023-04-02T02:56:58.716Z,86.9213
2023-04-02T02:58:00.142Z,87.1790
2023-04-02T02:59:01.516Z,87.3713
2023-04-02T03:00:02.962Z,87.1384
2023-04-02T03:01:04.402Z,87.1409
2023-04-02T03:02:05.762Z,87.2715
2023-04-02T03:03:07.238Z,86.8336
2023-04-02T03:04:09.000Z,86.3274
2023-04-02T03:05:10.674Z,86.3655
2023-04-02T03:06:12.100Z,86.0367
2023-04-02T03:07:13.485Z,86.0325
2023-04-02T03:08:14.975Z,86.4842
2023-04-02T03:09:16.398Z,86.5350
2023-04-02T03:10:17.816Z,86.0575
2023-04-02T03:11:19.277Z,86.0273
2023-04-02T03:12:20.685Z,86.2044
2023-04-02T03:13:22.066Z,86.4349
2023-04-02T03:14:23.446Z,86.1977
2023-04-02T03:15:24.798Z,86.5465
2023-04-02T03:16:26.297Z,86.4233
2023-04-02T03:17:27.732Z,86.8537
2023-04-02T03:18:29.155Z,86.7045
2023-04-02T03:19:30.566Z,87.4190
2023-04-02T03:20:31.951Z,86.9281
2023-04-02T03:21:33.399Z,86.2792
2023-04-02T03:22:34.776Z,86.1249
2023-04-02T03:23:36.164Z,86.5658
2023-04-02T03:24:37.524Z,86.6484
2023-04-02T03:25:38.979Z,86.7920
2023-04-02T03:26:40.308Z,86.5362
2023-04-02T03:27:41.755Z,86.6203
2023-04-02T03:28:43.135Z,86.6900
2023-04-02T03:29:44.575Z,87.2255
2023-04-02T03:30:46.028Z,86.3719
2023-04-02T03:31:47.585Z,86.3543
2023-04-02T03:32:49.112Z,86.7322
2023-04-02T03:33:50.596Z,86.2220
2023-04-02T03:34:52.059Z,86.0885
2023-04-02T03:35:53.611Z,85.9193
2023-04-02T03:36:55.065Z,86.0274
2023-04-02T03:37:56.547Z,86.1956
2023-04-02T03:38:58.105Z,86.1795
2023-04-02T03:39:59.594Z,85.9826
2023-04-02T03:41:01.173Z,86.0062
2023-04-02T03:42:02.553Z,86.0789
2023-04-02T03:43:04.015Z,86.5113
2023-04-02T03:44:05.514Z,86.3075
2023-04-02T03:45:07.156Z,86.3550
2023-04-02T03:46:08.926Z,85.8795
2023-04-02T03:47:10.381Z,85.9723
2023-04-02T03:48:11.841Z,86.2904
2023-04-02T03:49:13.324Z,86.2002
2023-04-02T03:50:14.796Z,86.5162
2023-04-02T03:51:16.307Z,86.5651
2023-04-02T03:52:17.779Z,86.6574
2023-04-02T03:53:19.242Z,86.6161
2023-04-02T03:54:20.720Z,86.8696
2023-04-02T03:55:22.253Z,87.0008
2023-04-02T03:56:23.636Z,87.1980
2023-04-02T03:57:25.174Z,87.4144
2023-04-02T03:58:26.721Z,87.2728
2023-04-02T03:59:28.283Z,87.1097
2023-04-02T04:00:29.703Z,87.3179
2023-04-02T04:01:31.209Z,87.1646
2023-04-02T04:02:32.652Z,87.1320
2023-04-02T04:03:34.181Z,87.4761
2023-04-02T04:04:35.730Z,87.2370
2023-04-02T04:05:37.456Z,87.2228
2023-04-02T04:06:39.097Z,87.0625
2023-04-02T04:07:40.520Z,87.0679
2023-04-02T04:08:41.949Z,85.5891
2023-04-02T04:09:43.413Z,83.7477
2023-04-02T04:10:44.890Z,83.5832
2023-04-02T04:11:46.346Z,84.2691
2023-04-02T04:12:47.915Z,84.2606
2023-04-02T04:13:49.384Z,84.1608
2023-04-02T04:14:50.851Z,83.6416
2023-04-02T04:15:52.275Z,83.7857
2023-04-02T04:16:54.003Z,83.7558
2023-04-02T04:17:55.950Z,83.8929
2023-04-02T04:18:57.396Z,84.0535
2023-04-02T04:19:58.856Z,83.8211
2023-04-02T04:21:00.396Z,83.3973
2023-04-02T04:22:01.850Z,83.4986
2023-04-02T04:23:03.268Z,83.2029
2023-04-02T04:24:04.863Z,83.5351
2023-04-02T04:25:06.285Z,83.7029
2023-04-02T04:26:07.731Z,83.9524
2023-04-02T04:27:09.182Z,83.8304
2023-04-02T04:28:10.653Z,83.5001
2023-04-02T04:29:12.070Z,83.6434
2023-04-02T04:30:13.641Z,83.7001
2023-04-02T04:31:15.103Z,83.8496
2023-04-02T04:32:16.609Z,84.1071
2023-04-02T04:33:18.246Z,84.3538
2023-04-02T04:34:19.697Z,84.7160
2023-04-02T04:35:21.144Z,84.4986
2023-04-02T04:36:22.586Z,84.3998
2023-04-02T04:37:24.077Z,84.2116
2023-04-02T04:38:25.562Z,84.5328
2023-04-02T04:39:27.154Z,84.3266
2023-04-02T04:40:28.602Z,84.2761
2023-04-02T04:41:30.049Z,84.2357
2023-04-02T04:42:31.491Z,84.5267
2023-04-02T04:43:32.982Z,84.3988
2023-04-02T04:44:34.445Z,84.3780
2023-04-02T04:45:36.221Z,83.9323
2023-04-02T04:46:37.882Z,83.9156
2023-04-02T04:47:39.373Z,83.9412
2023-04-02T04:48:40.813Z,83.7078
2023-04-02T04:49:42.266Z,83.5621
2023-04-02T04:50:43.705Z,83.9580
2023-04-02T04:51:45.179Z,83.9833
2023-04-02T04:52:46.632Z,83.3104
2023-04-02T04:53:48.185Z,83.5021
2023-04-02T04:54:49.663Z,83.4268
2023-04-02T04:55:51.104Z,83.7361
2023-04-02T04:56:52.606Z,83.7703
2023-04-02T04:57:54.040Z,83.7363
2023-04-02T04:58:55.454Z,83.4696
2023-04-02T04:59:56.878Z,83.1085
2023-04-02T05:00:58.321Z,83.1843
2023-04-02T05:01:59.793Z,83.2415
2023-04-02T05:03:01.373Z,83.2450
2023-04-02T05:04:02.791Z,83.5292
2023-04-02T05:05:04.317Z,83.7979
2023-04-02T05:06:05.764Z,84.0194
2023-04-02T05:07:07.235Z,83.6059
2023-04-02T05:08:08.664Z,83.7710
2023-04-02T05:09:10.080Z,84.0119
2023-04-02T05:10:11.563Z,83.3879
2023-04-02T05:11:13.045Z,83.0471
2023-04-02T05:12:14.493Z,83.3796
2023-04-02T05:13:15.913Z,83.4878
2023-04-02T05:14:17.416Z,83.5658
2023-04-02T05:15:18.867Z,83.6893
2023-04-02T05:16:20.383Z,83.6957
2023-04-02T05:17:21.870Z,83.8316
2023-04-02T05:18:23.372Z,83.4666
2023-04-02T05:19:24.824Z,83.6634
2023-04-02T05:20:26.263Z,83.5712
2023-04-02T05:21:27.669Z,83.4999
2023-04-02T05:22:29.109Z,83.7642
2023-04-02T05:23:30.614Z,83.7087
2023-04-02T05:24:31.998Z,83.6280
2023-04-02T05:25:33.669Z,83.6061
2023-04-02T05:26:35.183Z,83.6003
2023-04-02T05:27:36.681Z,83.8076
2023-04-02T05:28:38.132Z,84.0245
2023-04-02T05:29:39.647Z,83.6482
2023-04-02T05:30:41.251Z,82.9366
2023-04-02T05:31:42.795Z,82.6697
2023-04-02T05:32:44.367Z,82.7384
2023-04-02T05:33:45.866Z,82.7700
2023-04-02T05:34:47.343Z,83.0891
2023-04-02T05:35:48.867Z,83.3353
2023-04-02T05:36:50.356Z,83.3032
2023-04-02T05:37:51.809Z,82.8462
2023-04-02T05:38:53.277Z,82.8981
2023-04-02T05:39:54.792Z,83.0622
2023-04-02T05:40:56.275Z,82.9867
2023-04-02T05:41:57.761Z,83.0397
2023-04-02T05:42:59.197Z,82.9712
2023-04-02T05:44:00.665Z,82.7184
2023-04-02T05:45:02.134Z,82.7912
2023-04-02T05:46:03.804Z,82.8949
2023-04-02T05:47:05.244Z,83.0556
2023-04-02T05:48:06.748Z,83.0725
2023-04-02T05:49:08.183Z,82.7532
2023-04-02T05:50:09.663Z,83.0770
2023-04-02T05:51:11.094Z,83.1992
2023-04-02T05:52:12.556Z,83.2764
2023-04-02T05:53:14.095Z,83.1036
2023-04-02T05:54:15.563Z,82.8766
2023-04-02T05:55:17.386Z,83.0121
2023-04-02T05:56:18.813Z,83.0414
2023-04-02T05:57:20.270Z,82.9784
2023-04-02T05:58:35.573Z,82.9363
2023-04-02T05:59:21.738Z,82.7701
2023-04-02T06:00:23.180Z,82.9001
2023-04-02T06:01:24.620Z,82.6785
2023-04-02T06:02:26.086Z,82.5440
2023-04-02T06:03:27.745Z,82.5075
2023-04-02T06:04:29.223Z,82.4643
2023-04-02T06:05:30.641Z,82.6699
2023-04-02T06:06:32.075Z,82.7394
2023-04-02T06:07:33.516Z,82.5738
2023-04-02T06:08:35.057Z,82.6869
2023-04-02T06:09:36.519Z,82.6684
2023-04-02T06:10:37.972Z,82.6853
2023-04-02T06:11:39.417Z,82.7030
2023-04-02T06:12:40.922Z,82.7764
2023-04-02T06:13:42.406Z,82.7483
2023-04-02T06:14:43.935Z,82.9446
2023-04-02T06:15:47.247Z,82.3863
2023-04-02T06:16:46.801Z,82.4405
2023-04-02T06:17:48.301Z,82.4507
2023-04-02T06:18:49.789Z,82.4394
2023-04-02T06:19:51.251Z,82.5152
2023-04-02T06:20:52.720Z,82.4142
2023-04-02T06:21:54.124Z,82.2041
2023-04-02T06:22:55.623Z,82.2824
2023-04-02T06:23:57.102Z,82.3373
2023-04-02T06:24:58.543Z,82.1338
2023-04-02T06:26:00.013Z,81.7328
2023-04-02T06:27:01.491Z,81.6751
2023-04-02T06:28:02.982Z,81.5924
2023-04-02T06:29:04.465Z,81.7617
2023-04-02T06:30:05.917Z,81.6217
2023-04-02T06:31:07.552Z,81.1037
2023-04-02T06:32:08.992Z,81.1823
2023-04-02T06:33:10.521Z,81.1674
2023-04-02T06:34:12.000Z,81.2368
2023-04-02T06:35:13.442Z,81.3640
2023-04-02T06:36:14.878Z,81.6542
2023-04-02T06:37:16.252Z,81.6197
2023-04-02T06:38:17.745Z,81.6583
2023-04-02T06:39:19.184Z,81.8847
2023-04-02T06:40:20.640Z,81.5605
2023-04-02T06:41:22.861Z,81.0374
2023-04-02T06:42:24.331Z,81.1095
2023-04-02T06:43:25.780Z,81.1912
2023-04-02T06:44:27.254Z,81.2194
2023-04-02T06:45:28.681Z,81.0816
2023-04-02T06:46:30.172Z,80.5337
2023-04-02T06:47:31.704Z,80.6180
2023-04-02T06:48:33.280Z,80.7702
2023-04-02T06:49:34.701Z,80.7475
2023-04-02T06:50:36.168Z,80.7344
2023-04-02T06:51:37.609Z,80.7633
2023-04-02T06:52:39.072Z,80.8737
2023-04-02T06:53:40.517Z,80.8562
2023-04-02T06:54:41.948Z,80.8358
2023-04-02T06:55:43.422Z,80.9619
2023-04-02T06:56:44.779Z,81.0766
2023-04-02T06:57:46.244Z,81.1922
2023-04-02T06:58:47.709Z,81.0195
2023-04-02T06:59:49.132Z,80.5952
2023-04-02T07:00:50.513Z,80.4459
2023-04-02T07:01:51.998Z,80.3977
2023-04-02T07:02:55.152Z,80.4016
2023-04-02T07:03:58.447Z,80.6620
2023-04-02T07:05:00.864Z,79.9021
2023-04-02T07:06:02.273Z,79.6365
2023-04-02T07:07:03.734Z,79.4659
2023-04-02T07:08:05.208Z,79.8817
2023-04-02T07:09:07.641Z,79.3597
2023-04-02T07:10:09.172Z,78.9703
2023-04-02T07:11:10.649Z,79.1378
2023-04-02T07:12:12.062Z,79.4927
2023-04-02T07:13:13.533Z,79.8995
2023-04-02T07:14:15.002Z,79.4059
2023-04-02T07:15:16.586Z,78.9931
2023-04-02T07:16:18.093Z,79.2392
2023-04-02T07:17:19.640Z,78.9918
2023-04-02T07:18:21.198Z,78.9805
2023-04-02T07:19:22.769Z,79.0900
2023-04-02T07:20:24.238Z,79.0724
2023-04-02T07:21:25.683Z,80.0144
2023-04-02T07:22:27.091Z,79.4047
2023-04-02T07:23:28.560Z,79.4007
2023-04-02T07:24:30.030Z,79.2598
2023-04-02T07:25:31.487Z,78.9713
2023-04-02T07:26:32.932Z,78.4753
2023-04-02T07:27:34.379Z,78.4875
2023-04-02T07:28:35.859Z,78.4449
2023-04-02T07:29:37.271Z,78.6613
2023-04-02T07:30:38.688Z,78.2345
2023-04-02T07:31:40.230Z,77.9464
2023-04-02T07:32:41.674Z,77.9120
2023-04-02T07:33:43.081Z,78.2161
2023-04-02T07:34:44.485Z,78.4120
2023-04-02T07:35:46.028Z,78.0608
2023-04-02T07:36:47.441Z,77.5954
2023-04-02T07:37:48.894Z,77.3610
2023-04-02T07:38:50.303Z,77.6486
2023-04-02T07:39:51.809Z,77.1398
2023-04-02T07:40:53.238Z,77.3880
2023-04-02T07:41:54.568Z,76.5980
2023-04-02T07:42:56.038Z,76.3682
2023-04-02T07:43:57.524Z,76.6347
2023-04-02T07:44:58.926Z,76.3701
2023-04-02T07:46:00.339Z,76.8853
2023-04-02T07:47:01.834Z,77.1724
2023-04-02T07:48:03.495Z,77.5468
2023-04-02T07:49:05.010Z,77.4689
2023-04-02T07:50:06.491Z,76.7557
2023-04-02T07:51:07.919Z,76.1752
2023-04-02T07:52:09.373Z,75.5704
2023-04-02T07:53:10.786Z,75.6772
2023-04-02T07:54:12.254Z,75.7723
2023-04-02T07:55:13.672Z,75.5033
2023-04-02T07:56:15.104Z,74.6673
2023-04-02T07:57:16.556Z,73.2532
2023-04-02T07:58:17.975Z,73.6563
2023-04-02T07:59:19.442Z,73.4979
2023-04-02T08:00:20.860Z,73.6496
2023-04-02T08:01:22.279Z,74.3426
2023-04-02T08:02:23.703Z,75.1940
2023-04-02T08:03:25.318Z,75.7447
2023-04-02T08:04:26.845Z,75.8985
2023-04-02T08:05:28.331Z,75.8264
2023-04-02T08:06:29.776Z,76.4738
2023-04-02T08:07:31.229Z,75.9241
2023-04-02T08:08:32.685Z,75.3928
2023-04-02T08:09:34.123Z,75.2198
2023-04-02T08:10:35.639Z,75.9816
2023-04-02T08:11:37.154Z,75.7692
2023-04-02T08:12:38.678Z,75.6086
2023-04-02T08:13:40.131Z,75.6655
2023-04-02T08:14:41.639Z,75.0452
2023-04-02T08:15:43.028Z,75.0720
2023-04-02T08:16:44.586Z,76.1559
2023-04-02T08:17:46.029Z,76.6678
2023-04-02T08:18:47.473Z,76.1868
2023-04-02T08:19:55.130Z,75.3639
2023-04-02T08:20:49.011Z,75.2673
2023-04-02T08:21:50.466Z,75.4435
2023-04-02T08:22:51.945Z,75.5811
2023-04-02T08:23:53.371Z,76.5479
2023-04-02T08:24:54.912Z,77.2992
2023-04-02T08:25:56.366Z,77.5254
2023-04-02T08:26:57.847Z,77.6363
2023-04-02T08:27:59.292Z,78.1123
2023-04-02T08:29:00.853Z,78.1540
2023-04-02T08:30:02.316Z,78.1798
2023-04-02T08:31:03.853Z,76.8535
2023-04-02T08:32:05.276Z,77.4701
2023-04-02T08:33:06.768Z,76.7175
2023-04-02T08:34:08.195Z,76.6422
2023-04-02T08:35:09.731Z,76.9990
2023-04-02T08:36:11.304Z,76.3248
2023-04-02T08:37:12.733Z,75.9363
2023-04-02T08:38:14.140Z,75.9079
2023-04-02T08:39:15.586Z,76.6653
2023-04-02T08:40:17.023Z,75.8959
2023-04-02T08:41:18.571Z,76.2957
2023-04-02T08:42:19.984Z,76.0357
2023-04-02T08:43:23.109Z,76.0366
2023-04-02T08:44:22.973Z,76.1706
2023-04-02T08:45:25.595Z,75.8525
2023-04-02T08:46:24.918Z,75.4700
2023-04-02T08:47:26.420Z,75.6678
2023-04-02T08:48:27.841Z,75.2341
2023-04-02T08:49:29.322Z,75.5934
2023-04-02T08:50:30.861Z,75.6329
2023-04-02T08:51:32.302Z,75.8436
2023-04-02T08:52:33.740Z,75.3486
2023-04-02T08:53:35.206Z,75.6068
2023-04-02T08:54:36.676Z,75.1212
2023-04-02T08:55:38.240Z,75.7474
2023-04-02T08:56:39.737Z,75.4954
2023-04-02T08:57:41.182Z,75.1099
2023-04-02T08:58:42.610Z,74.9861
2023-04-02T08:59:44.107Z,74.9598
2023-04-02T09:00:45.562Z,75.1072
2023-04-02T09:01:47.031Z,74.4062
2023-04-02T09:02:48.480Z,74.0513
2023-04-02T09:03:49.916Z,74.0475
2023-04-02T09:04:51.439Z,74.2029
2023-04-02T09:05:52.933Z,74.3788
2023-04-02T09:06:54.369Z,74.6833
2023-04-02T09:07:55.811Z,74.9717
2023-04-02T09:08:57.267Z,75.2148
2023-04-02T09:09:58.836Z,75.4562
2023-04-02T09:11:00.306Z,75.5037
2023-04-02T09:12:01.803Z,74.9993
2023-04-02T09:13:03.198Z,74.9230
2023-04-02T09:14:04.747Z,74.5870
2023-04-02T09:15:06.214Z,74.3411
2023-04-02T09:16:07.792Z,74.3314
2023-04-02T09:17:09.251Z,74.5186
2023-04-02T09:18:10.741Z,74.1260
2023-04-02T09:19:12.166Z,73.9070
2023-04-02T09:20:13.661Z,73.6126
2023-04-02T09:21:15.112Z,73.4558
2023-04-02T09:22:16.593Z,73.4082
2023-04-02T09:23:18.044Z,72.7708
2023-04-02T09:24:19.523Z,72.2420
2023-04-02T09:25:21.021Z,72.8973
2023-04-02T09:26:22.460Z,72.5147
2023-04-02T09:27:23.893Z,73.0933
2023-04-02T09:28:25.341Z,72.7946
2023-04-02T09:29:26.769Z,72.8275
2023-04-02T09:30:28.257Z,72.4966
2023-04-02T09:31:29.705Z,73.2772
2023-04-02T09:32:31.165Z,72.6872
2023-04-02T09:33:32.536Z,72.2081
2023-04-02T09:34:34.159Z,73.0165
2023-04-02T09:35:35.597Z,73.1134
2023-04-02T09:36:37.051Z,72.4402
2023-04-02T09:37:38.464Z,71.7534
2023-04-02T09:38:39.955Z,71.9473
2023-04-02T09:39:41.430Z,71.9731
2023-04-02T09:40:43.097Z,72.6607
2023-04-02T09:41:48.186Z,73.0968
2023-04-02T09:42:44.590Z,73.3239
2023-04-02T09:43:46.046Z,73.4043
2023-04-02T09:44:47.516Z,72.6199
2023-04-02T09:45:49.282Z,71.5546
2023-04-02T09:46:50.764Z,72.0424
2023-04-02T09:47:52.240Z,71.8870
2023-04-02T09:48:53.703Z,71.8446
2023-04-02T09:49:55.149Z,71.9780
2023-04-02T09:50:56.639Z,71.7477
2023-04-02T09:51:58.732Z,71.4330
2023-04-02T09:53:00.212Z,71.5326
2023-04-02T09:54:01.681Z,70.7925
2023-04-02T09:55:03.137Z,71.0831
2023-04-02T09:56:04.617Z,71.3541
2023-04-02T09:57:06.120Z,71.1320
2023-04-02T09:58:07.575Z,71.4805
2023-04-02T09:59:09.025Z,71.4504
2023-04-02T10:00:18.371Z,71.6719
2023-04-02T10:01:10.586Z,71.4733
2023-04-02T10:02:12.024Z,71.2644
2023-04-02T10:03:13.478Z,70.3122
2023-04-02T10:04:14.951Z,69.4738
2023-04-02T10:05:23.549Z,69.9085
2023-04-02T10:06:15.550Z,69.5779
2023-04-02T10:07:16.970Z,69.4560
2023-04-02T10:08:18.446Z,69.3294
2023-04-02T10:09:19.915Z,69.2664
2023-04-02T10:10:21.406Z,68.5364
2023-04-02T10:11:22.973Z,69.1556
2023-04-02T10:12:24.930Z,69.3707
2023-04-02T10:13:26.364Z,69.1973
2023-04-02T10:14:27.829Z,69.2633
2023-04-02T10:15:29.222Z,68.8509
2023-04-02T10:16:30.708Z,68.5834
2023-04-02T10:17:32.178Z,67.7760
2023-04-02T10:18:33.722Z,68.0567
2023-04-02T10:19:35.179Z,68.2393
2023-04-02T10:20:48.597Z,68.5255
2023-04-02T10:21:36.653Z,68.5854
2023-04-02T10:22:38.117Z,68.4799
2023-04-02T10:23:39.591Z,68.8345
2023-04-02T10:24:41.052Z,68.5472
2023-04-02T10:25:42.508Z,67.7422
2023-04-02T10:26:43.990Z,66.6653
2023-04-02T10:27:45.402Z,66.9354
2023-04-02T10:28:46.895Z,67.7140
2023-04-02T10:29:48.331Z,67.3386
2023-04-02T10:30:49.814Z,67.5886
2023-04-02T10:31:51.231Z,67.2309
2023-04-02T10:32:52.728Z,67.0510
2023-04-02T10:33:54.189Z,67.2377
2023-04-02T10:34:55.622Z,66.9032
2023-04-02T10:35:57.123Z,67.1950
2023-04-02T10:36:58.541Z,67.4970
2023-04-02T10:37:59.994Z,67.5680
2023-04-02T10:39:01.414Z,67.7179
2023-04-02T10:40:02.845Z,67.2604
2023-04-02T10:41:04.324Z,67.5917
2023-04-02T10:42:05.723Z,67.8740
2023-04-02T10:43:07.181Z,67.8466
2023-04-02T10:44:18.998Z,68.2896
2023-04-02T10:45:08.707Z,68.9073
2023-04-02T10:46:10.205Z,68.1093
2023-04-02T10:47:11.737Z,66.5664
2023-04-02T10:48:13.192Z,66.8284
2023-04-02T10:49:14.672Z,66.3756
2023-04-02T10:50:16.100Z,65.9865
2023-04-02T10:51:17.596Z,65.5331
2023-04-02T10:52:19.038Z,65.1525
2023-04-02T10:53:20.485Z,65.4147
2023-04-02T10:54:21.899Z,64.9283
2023-04-02T10:55:23.366Z,65.0715
2023-04-02T10:56:24.832Z,63.9718
2023-04-02T10:57:26.304Z,63.8083
2023-04-02T10:58:27.739Z,64.8110
2023-04-02T10:59:29.194Z,64.0923
2023-04-02T11:00:30.655Z,63.3069
2023-04-02T11:01:32.156Z,63.7387
2023-04-02T11:02:33.594Z,63.7405
2023-04-02T11:03:35.197Z,63.4393
2023-04-02T11:04:36.675Z,62.7973
2023-04-02T11:05:38.158Z,62.5660
2023-04-02T11:06:39.586Z,63.0697
2023-04-02T11:07:41.021Z,63.4001
2023-04-02T11:08:42.417Z,63.5049
2023-04-02T11:09:43.896Z,63.2974
2023-04-02T11:10:45.343Z,65.0766
2023-04-02T11:11:46.789Z,64.5285
2023-04-02T11:12:48.199Z,64.1003
2023-04-02T11:13:49.657Z,64.7042
2023-04-02T11:14:51.114Z,63.9987
2023-04-02T11:15:52.579Z,64.0405
2023-04-02T11:16:54.038Z,62.5598
2023-04-02T11:17:55.513Z,62.5602
2023-04-02T11:18:56.954Z,62.9098
2023-04-02T11:19:58.377Z,63.2606
2023-04-02T11:20:59.834Z,61.9377
2023-04-02T11:22:03.113Z,63.0249
2023-04-02T11:23:01.818Z,63.3066
2023-04-02T11:24:03.218Z,62.8029
2023-04-02T11:25:04.672Z,62.7714
2023-04-02T11:26:06.115Z,62.7889
2023-04-02T11:27:07.650Z,62.4692
2023-04-02T11:28:09.073Z,63.1610
2023-04-02T11:29:10.532Z,62.5646
2023-04-02T11:30:11.972Z,62.7729
2023-04-02T11:31:13.406Z,62.4385
2023-04-02T11:32:14.818Z,63.5463
2023-04-02T11:33:18.692Z,61.9292
2023-04-02T11:34:17.554Z,62.1763
2023-04-02T11:35:19.012Z,61.7537
2023-04-02T11:36:20.420Z,61.6477
2023-04-02T11:37:21.911Z,61.9062
2023-04-02T11:38:23.294Z,60.9187
2023-04-02T11:39:24.726Z,61.1154
2023-04-02T11:40:26.154Z,60.4999
2023-04-02T11:41:27.576Z,59.0118
2023-04-02T11:42:29.023Z,58.9863
2023-04-02T11:43:30.455Z,56.1091
2023-04-02T11:44:31.838Z,54.3460
2023-04-02T11:45:40.167Z,49.8418
2023-04-02T11:46:33.221Z,51.3137
2023-04-02T11:47:34.660Z,52.3331
2023-04-02T11:48:36.273Z,54.4852
2023-04-02T11:49:37.788Z,57.2949
2023-04-02T11:50:38.255Z,58.1685
2023-04-02T11:51:39.762Z,55.8886
2023-04-02T11:52:41.272Z,58.6705
2023-04-02T11:53:42.649Z,58.5764
2023-04-02T11:54:44.074Z,57.0757
2023-04-02T11:55:45.418Z,57.6270
2023-04-02T11:56:46.793Z,58.9669
2023-04-02T11:57:48.176Z,61.2880
2023-04-02T11:58:49.527Z,61.1361
2023-04-02T11:59:50.863Z,61.9637
2023-04-02T12:00:52.267Z,60.4524
2023-04-02T12:01:53.633Z,58.0176
2023-04-02T12:02:55.016Z,56.2833
2023-04-02T12:03:56.396Z,57.6748
2023-04-02T12:04:57.721Z,61.8033
2023-04-02T12:05:59.082Z,60.7211
2023-04-02T12:07:00.463Z,62.8683
2023-04-02T12:08:01.830Z,65.2959
2023-04-02T12:09:03.271Z,64.8441
2023-04-02T12:10:04.639Z,64.4628
2023-04-02T12:11:06.016Z,63.5901
2023-04-02T12:12:07.398Z,63.2891
2023-04-02T12:13:08.795Z,62.9143
2023-04-02T12:14:10.177Z,62.8941
2023-04-02T12:15:10.165Z,63.8266
2023-04-02T12:16:11.558Z,63.8437
2023-04-02T12:17:13.091Z,63.3864
2023-04-02T12:18:14.583Z,63.5816
2023-04-02T12:19:15.968Z,62.8428
2023-04-02T12:20:17.386Z,62.9556
2023-04-02T12:21:18.795Z,63.1640
2023-04-02T12:22:20.344Z,62.1976
2023-04-02T12:23:21.745Z,61.4924